createdAt,value
2022-10-28T00:01:24.226Z,77.20
2022-10-28T00:03:58.834Z,77.20
2022-10-28T00:06:33.265Z,77.20
2022-10-28T00:09:00.854Z,77.20
2022-10-28T00:11:32.089Z,77.30
2022-10-28T00:14:03.819Z,77.90
2022-10-28T00:16:34.425Z,77.20
2022-10-28T00:19:03.699Z,77.20
2022-10-28T00:21:35.878Z,77.20
2022-10-28T00:24:04.082Z,77.20
2022-10-28T00:26:36.597Z,77.20
2022-10-28T00:29:08.543Z,77.10
2022-10-28T00:31:37.908Z,77.20
2022-10-28T00:34:10.681Z,77.10
2022-10-28T00:36:41.360Z,77.10
2022-10-28T00:39:29.097Z,77.10
2022-10-28T00:42:03.840Z,77.00
2022-10-28T00:44:43.710Z,77.00
2022-10-28T00:47:38.268Z,77.00
2022-10-28T00:50:34.963Z,76.90
2022-10-28T00:53:20.780Z,76.90
2022-10-28T00:55:49.470Z,76.90
2022-10-28T00:58:18.290Z,76.90
2022-10-28T01:00:45.999Z,76.80
2022-10-28T01:03:13.973Z,76.80
2022-10-28T01:05:44.763Z,76.80
2022-10-28T01:08:12.629Z,76.80
2022-10-28T01:11:23.187Z,76.80
2022-10-28T01:14:13.883Z,76.80
2022-10-28T01:16:49.320Z,76.80
2022-10-28T01:20:00.045Z,76.80
2022-10-28T01:22:48.192Z,76.90
2022-10-28T01:26:12.359Z,76.80
2022-10-28T01:29:16.298Z,76.80
2022-10-28T01:32:12.953Z,76.80
2022-10-28T01:35:09.549Z,76.80
2022-10-28T01:37:57.900Z,76.70
2022-10-28T01:40:35.212Z,76.80
2022-10-28T01:43:37.114Z,76.80
2022-10-28T01:46:36.368Z,76.80
2022-10-28T01:49:21.416Z,76.80
2022-10-28T01:51:56.245Z,76.80
2022-10-28T01:54:25.532Z,76.80
2022-10-28T01:56:55.689Z,76.80
2022-10-28T01:59:27.405Z,76.80
2022-10-28T02:01:55.935Z,76.70
2022-10-28T02:04:23.791Z,76.60
2022-10-28T02:06:57.416Z,76.70
2022-10-28T02:10:04.346Z,76.60
2022-10-28T02:12:34.482Z,76.60
2022-10-28T02:15:26.560Z,76.60
2022-10-28T02:18:15.096Z,76.60
2022-10-28T02:21:04.390Z,76.60
2022-10-28T02:24:20.277Z,76.60
2022-10-28T02:27:07.935Z,76.70
2022-10-28T02:29:54.697Z,76.70
2022-10-28T02:32:28.731Z,76.60
2022-10-28T02:34:59.676Z,76.60
2022-10-28T02:37:33.555Z,76.60
2022-10-28T02:40:07.397Z,76.70
2022-10-28T02:42:41.631Z,76.60
2022-10-28T02:45:15.038Z,76.60
2022-10-28T02:47:52.157Z,76.60
2022-10-28T02:50:26.114Z,76.60
2022-10-28T02:52:59.143Z,77.20
2022-10-28T02:55:36.425Z,76.60
2022-10-28T02:58:05.620Z,76.60
2022-10-28T03:00:33.157Z,76.60
2022-10-28T03:03:00.717Z,76.60
2022-10-28T03:05:28.408Z,76.60
2022-10-28T03:07:56.083Z,76.50
2022-10-28T03:10:23.610Z,76.60
2022-10-28T03:12:51.187Z,76.60
2022-10-28T03:15:18.881Z,76.60
2022-10-28T03:17:46.736Z,76.60
2022-10-28T03:20:14.350Z,76.60
2022-10-28T03:22:44.632Z,76.60
2022-10-28T03:25:12.408Z,76.70
2022-10-28T03:27:41.695Z,76.70
2022-10-28T03:30:10.092Z,76.70
2022-10-28T03:32:37.712Z,76.70
2022-10-28T03:35:07.337Z,76.70
2022-10-28T03:37:35.114Z,76.60
2022-10-28T03:40:07.924Z,76.70
2022-10-28T03:42:38.842Z,76.80
2022-10-28T03:45:12.392Z,76.80
2022-10-28T03:47:41.276Z,76.70
2022-10-28T03:50:09.486Z,77.30
2022-10-28T03:52:37.656Z,76.70
2022-10-28T03:55:06.063Z,76.70
2022-10-28T03:57:34.029Z,76.80
2022-10-28T04:00:01.511Z,76.70
2022-10-28T04:02:39.213Z,76.70
2022-10-28T04:05:07.326Z,76.80
2022-10-28T04:07:38.895Z,76.80
2022-10-28T04:10:06.989Z,76.70
2022-10-28T04:12:34.527Z,76.80
2022-10-28T04:15:02.208Z,76.70
2022-10-28T04:17:34.635Z,76.60
2022-10-28T04:20:02.350Z,76.60
2022-10-28T04:22:30.197Z,76.60
2022-10-28T04:24:57.739Z,76.60
2022-10-28T04:27:25.170Z,76.60
2022-10-28T04:29:52.801Z,76.60
2022-10-28T04:32:20.680Z,76.60
2022-10-28T04:34:48.200Z,76.60
2022-10-28T04:37:19.682Z,76.60
2022-10-28T04:39:48.575Z,76.70
2022-10-28T04:42:16.166Z,76.60
2022-10-28T04:44:43.530Z,76.60
2022-10-28T04:47:11.102Z,76.60
2022-10-28T04:49:39.026Z,76.70
2022-10-28T04:52:08.768Z,76.70
2022-10-28T04:54:38.523Z,76.80
2022-10-28T04:57:08.768Z,76.70
2022-10-28T04:59:36.450Z,76.70
2022-10-28T05:02:04.134Z,76.70
2022-10-28T05:04:31.727Z,76.70
2022-10-28T05:06:59.380Z,77.00
2022-10-28T05:09:27.076Z,76.70
2022-10-28T05:11:54.727Z,76.70
2022-10-28T05:14:22.262Z,76.70
2022-10-28T05:16:49.782Z,76.80
2022-10-28T05:19:19.630Z,76.80
2022-10-28T05:21:47.259Z,76.80
2022-10-28T05:24:14.672Z,76.80
2022-10-28T05:26:42.316Z,76.80
2022-10-28T05:29:09.947Z,76.80
2022-10-28T05:31:37.487Z,76.80
2022-10-28T05:34:05.205Z,76.90
2022-10-28T05:36:32.774Z,76.90
2022-10-28T05:39:00.217Z,76.90
2022-10-28T05:41:27.869Z,77.00
2022-10-28T05:43:55.562Z,77.00
2022-10-28T05:46:23.210Z,77.00
2022-10-28T05:48:50.909Z,77.00
2022-10-28T05:51:18.666Z,77.10
2022-10-28T05:53:46.479Z,77.30
2022-10-28T05:56:14.112Z,77.40
2022-10-28T05:58:41.819Z,77.50
2022-10-28T06:01:09.665Z,77.70
2022-10-28T06:03:37.557Z,77.80
2022-10-28T06:06:05.396Z,77.80
2022-10-28T06:08:33.056Z,77.90
2022-10-28T06:11:00.508Z,77.90
2022-10-28T06:13:30.740Z,77.90
2022-10-28T06:15:58.294Z,78.10
2022-10-28T06:18:26.226Z,78.20
2022-10-28T06:20:58.242Z,78.30
2022-10-28T06:23:27.385Z,78.40
2022-10-28T06:26:02.194Z,78.50
2022-10-28T06:28:32.378Z,78.60
2022-10-28T06:31:07.192Z,78.70
2022-10-28T06:33:35.420Z,78.70
2022-10-28T06:36:03.666Z,78.70
2022-10-28T06:38:33.783Z,78.80
2022-10-28T06:41:01.608Z,78.70
2022-10-28T06:43:29.609Z,78.70
2022-10-28T06:46:02.574Z,78.80
2022-10-28T06:48:32.699Z,78.80
2022-10-28T06:51:00.776Z,78.70
2022-10-28T06:53:28.530Z,78.80
2022-10-28T06:55:57.847Z,78.80
2022-10-28T06:58:26.829Z,78.80
2022-10-28T07:00:55.757Z,78.80
2022-10-28T07:03:23.524Z,78.80
2022-10-28T07:05:51.732Z,78.80
2022-10-28T07:08:19.448Z,78.80
2022-10-28T07:11:03.236Z,78.80
2022-10-28T07:13:30.959Z,78.80
2022-10-28T07:16:01.902Z,78.70
2022-10-28T07:18:31.021Z,78.70
2022-10-28T07:21:02.671Z,78.70
2022-10-28T07:23:33.251Z,78.70
2022-10-28T07:26:02.112Z,78.70
2022-10-28T07:28:29.729Z,78.70
2022-10-28T07:31:04.810Z,78.70
2022-10-28T07:33:32.797Z,78.60
2022-10-28T07:36:03.812Z,78.60
2022-10-28T07:38:31.240Z,78.60
2022-10-28T07:40:59.038Z,78.50
2022-10-28T07:43:26.742Z,78.50
2022-10-28T07:46:01.565Z,78.50
2022-10-28T07:48:29.486Z,78.50
2022-10-28T07:51:01.184Z,78.50
2022-10-28T07:53:32.404Z,78.40
2022-10-28T07:56:04.418Z,78.40
2022-10-28T07:58:32.435Z,78.40
2022-10-28T08:01:07.868Z,78.40
2022-10-28T08:03:42.895Z,78.30
2022-10-28T08:06:17.638Z,78.30
2022-10-28T08:08:48.013Z,78.30
2022-10-28T08:11:25.562Z,78.20
2022-10-28T08:13:55.594Z,78.20
2022-10-28T08:16:23.164Z,78.30
2022-10-28T08:18:51.349Z,78.10
2022-10-28T08:21:19.000Z,78.10
2022-10-28T08:23:47.150Z,78.10
2022-10-28T08:26:18.317Z,78.10
2022-10-28T08:28:49.452Z,78.10
2022-10-28T08:31:17.173Z,78.10
2022-10-28T08:33:49.526Z,78.10
2022-10-28T08:36:17.628Z,78.20
2022-10-28T08:38:48.783Z,78.20
2022-10-28T08:41:40.599Z,78.20
2022-10-28T08:44:32.237Z,78.30
2022-10-28T08:47:38.543Z,78.30
2022-10-28T08:50:33.198Z,78.40
2022-10-28T08:53:20.323Z,78.30
2022-10-28T08:55:50.652Z,78.30
2022-10-28T08:58:27.313Z,78.30
2022-10-28T09:01:00.240Z,78.20
2022-10-28T09:03:34.426Z,78.30
2022-10-28T09:06:09.724Z,78.30
2022-10-28T09:08:44.219Z,78.20
2022-10-28T09:11:40.152Z,78.30
2022-10-28T09:14:47.601Z,78.40
2022-10-28T09:20:25.754Z,78.50
2022-10-28T09:22:59.063Z,78.50
2022-10-28T09:35:22.347Z,78.20
2022-10-28T09:38:08.189Z,78.20
2022-10-28T09:40:41.224Z,78.40
2022-10-28T09:43:39.210Z,78.40
2022-10-28T09:46:18.550Z,78.30
2022-10-28T09:51:52.640Z,78.50
2022-10-28T09:54:33.840Z,78.50
2022-10-28T09:57:03.715Z,78.50
2022-10-28T10:05:19.461Z,78.40
2022-10-28T10:07:54.124Z,78.30
2022-10-28T10:10:31.940Z,78.30
2022-10-28T10:13:04.644Z,78.30
2022-10-28T10:15:51.835Z,78.30
2022-10-28T10:21:20.394Z,78.20
2022-10-28T10:26:34.131Z,78.10
2022-10-28T10:29:01.760Z,78.00
2022-10-28T10:31:32.902Z,78.60
2022-10-28T10:36:55.436Z,77.80
2022-10-28T10:39:40.220Z,77.90
2022-10-28T10:42:20.612Z,77.60
2022-10-28T10:45:20.865Z,77.40
2022-10-28T10:47:50.368Z,77.40
2022-10-28T10:50:47.134Z,77.30
2022-10-28T10:53:35.484Z,77.00
2022-10-28T10:56:08.603Z,76.90
2022-10-28T10:58:53.451Z,77.00
2022-10-28T11:04:27.336Z,76.90
2022-10-28T11:12:35.518Z,76.50
2022-10-28T11:15:21.741Z,76.60
2022-10-28T11:18:04.604Z,76.10
2022-10-28T11:21:07.320Z,76.00
2022-10-28T11:27:37.059Z,76.30
2022-10-28T11:37:44.463Z,76.00
2022-10-28T11:40:39.551Z,76.00
2022-10-28T11:43:54.390Z,75.70
2022-10-28T11:46:44.973Z,75.60
2022-10-28T11:49:30.311Z,75.50
2022-10-28T11:53:11.062Z,75.40
2022-10-28T11:59:23.752Z,76.10
2022-10-28T12:02:30.844Z,75.10
2022-10-28T12:05:30.901Z,75.20
2022-10-28T12:08:13.201Z,75.30
2022-10-28T12:15:02.866Z,75.10
2022-10-28T12:17:35.812Z,75.20
2022-10-28T12:20:39.726Z,75.00
2022-10-28T12:23:21.253Z,75.10
2022-10-28T12:25:57.556Z,75.10
2022-10-28T12:28:50.438Z,74.90
2022-10-28T12:31:34.759Z,75.00
2022-10-28T12:34:07.395Z,75.00
2022-10-28T12:36:43.648Z,75.00
2022-10-28T12:39:42.105Z,75.20
2022-10-28T12:42:31.278Z,75.10
2022-10-28T12:48:37.835Z,75.30
2022-10-28T12:51:08.659Z,75.30
2022-10-28T12:54:07.894Z,75.40
2022-10-28T12:56:38.332Z,75.50
2022-10-28T13:02:45.556Z,75.60
2022-10-28T13:05:28.279Z,75.90
2022-10-28T13:08:26.928Z,76.80
2022-10-28T13:11:39.284Z,76.60
2022-10-28T13:14:19.952Z,76.70
2022-10-28T13:17:11.931Z,76.70
2022-10-28T13:20:01.745Z,76.60
2022-10-28T13:22:49.927Z,76.60
2022-10-28T13:28:41.720Z,76.40
2022-10-28T13:34:00.503Z,76.30
2022-10-28T13:36:38.960Z,76.30
2022-10-28T13:39:33.807Z,76.30
2022-10-28T13:42:13.433Z,76.40
2022-10-28T13:45:02.593Z,76.50
2022-10-28T13:47:39.091Z,76.60
2022-10-28T13:50:06.809Z,76.50
2022-10-28T13:52:36.820Z,76.60
2022-10-28T13:58:28.470Z,76.80
2022-10-28T14:00:56.350Z,76.80
2022-10-28T14:03:26.986Z,76.80
2022-10-28T14:11:35.098Z,76.90
2022-10-28T14:14:05.839Z,77.00
2022-10-28T14:16:40.158Z,77.00
2022-10-28T14:24:58.599Z,76.10
2022-10-28T14:27:39.594Z,75.70
2022-10-28T14:30:19.096Z,76.10
2022-10-28T14:32:50.076Z,75.90
2022-10-28T14:38:39.762Z,76.20
2022-10-28T14:44:43.304Z,76.10
2022-10-28T14:47:57.666Z,76.20
2022-10-28T14:50:39.179Z,76.00
2022-10-28T14:53:14.863Z,76.20
2022-10-28T14:55:51.187Z,76.00
2022-10-28T14:58:22.381Z,76.70
2022-10-28T15:04:13.454Z,76.20
2022-10-28T15:06:48.333Z,76.00
2022-10-28T15:12:13.769Z,76.20
2022-10-28T15:17:39.653Z,76.20
2022-10-28T15:20:35.926Z,76.00
2022-10-28T15:23:23.936Z,76.30
2022-10-28T15:29:06.794Z,76.20
2022-10-28T15:31:34.363Z,76.10
2022-10-28T15:39:39.445Z,75.90
2022-10-28T15:48:32.109Z,75.90
2022-10-28T15:51:17.538Z,75.80
2022-10-28T15:53:54.182Z,76.00
2022-10-28T15:56:28.033Z,75.90
2022-10-28T15:59:24.122Z,76.00
2022-10-28T16:01:52.695Z,76.10
2022-10-28T16:04:23.110Z,75.80
2022-10-28T16:07:05.497Z,75.80
2022-10-28T16:09:46.564Z,76.00
2022-10-28T16:12:23.920Z,75.90
2022-10-28T16:15:02.031Z,75.90
2022-10-28T16:17:35.087Z,75.80
2022-10-28T16:28:46.597Z,75.50
2022-10-28T16:31:20.370Z,75.50
2022-10-28T16:33:48.428Z,75.50
2022-10-28T16:39:01.146Z,75.50
2022-10-28T16:41:28.852Z,75.50
2022-10-28T16:43:56.324Z,75.50
2022-10-28T16:46:23.740Z,75.50
2022-10-28T16:51:37.106Z,75.50
2022-10-28T16:54:04.774Z,75.60
2022-10-28T16:56:32.477Z,75.60
2022-10-28T16:59:00.023Z,75.70
2022-10-28T17:01:27.725Z,75.60
2022-10-28T17:03:55.287Z,75.50
2022-10-28T17:06:22.935Z,75.50
2022-10-28T17:09:02.985Z,75.50
2022-10-28T17:14:04.066Z,75.40
2022-10-28T17:16:35.970Z,75.40
2022-10-28T17:19:05.769Z,75.50
2022-10-28T17:24:18.353Z,75.50
2022-10-28T17:26:47.501Z,75.40
2022-10-28T17:29:15.435Z,75.40
2022-10-28T17:31:43.123Z,75.40
2022-10-28T17:34:12.076Z,75.40
2022-10-28T17:36:39.980Z,75.40
2022-10-28T17:39:11.143Z,75.40
2022-10-28T17:44:25.927Z,75.40
2022-10-28T17:49:38.423Z,75.40
2022-10-28T17:54:51.009Z,75.30
2022-10-28T17:57:18.737Z,75.30
2022-10-28T17:59:47.068Z,75.30
2022-10-28T18:05:00.246Z,75.30
2022-10-28T18:07:27.954Z,75.60
2022-10-28T18:09:55.286Z,75.50
2022-10-28T18:15:09.886Z,75.40
2022-10-28T18:20:22.662Z,75.40
2022-10-28T18:25:37.619Z,75.40
2022-10-28T18:28:05.813Z,75.30
2022-10-28T18:30:33.481Z,75.30
2022-10-28T18:44:14.408Z,75.30
2022-10-28T18:46:42.804Z,75.40
2022-10-28T18:51:55.003Z,75.30
2022-10-28T18:54:22.600Z,75.20
2022-10-28T18:56:53.686Z,75.20
2022-10-28T19:04:55.507Z,75.20
2022-10-28T19:07:23.049Z,75.20
2022-10-28T19:09:50.659Z,75.10
2022-10-28T19:12:18.195Z,75.10
2022-10-28T19:14:45.778Z,75.10
2022-10-28T19:17:14.063Z,75.00
2022-10-28T19:19:42.684Z,75.00
2022-10-28T19:22:10.525Z,75.00
2022-10-28T19:24:38.295Z,75.00
2022-10-28T19:27:05.850Z,75.00
2022-10-28T19:29:33.451Z,75.00
2022-10-28T19:32:01.070Z,74.90
2022-10-28T19:34:28.848Z,74.90
2022-10-28T19:36:56.504Z,75.20
2022-10-28T19:39:23.990Z,74.90
2022-10-28T19:44:38.611Z,74.90
2022-10-28T19:47:06.662Z,75.00
2022-10-28T19:49:39.304Z,75.00
2022-10-28T19:52:08.471Z,75.10
2022-10-28T19:54:36.058Z,75.20
2022-10-28T20:02:38.882Z,75.20
2022-10-28T20:05:07.061Z,75.20
2022-10-28T20:07:34.813Z,75.60
2022-10-28T20:10:02.486Z,76.10
2022-10-28T20:15:15.400Z,77.90
2022-10-28T20:17:43.201Z,77.70
2022-10-28T20:20:14.225Z,76.60
2022-10-28T20:25:26.990Z,76.20
2022-10-28T20:27:54.631Z,76.10
2022-10-28T20:30:22.280Z,76.00
2022-10-28T20:32:54.746Z,75.30
2022-10-28T20:35:25.560Z,75.20
2022-10-28T20:37:54.993Z,75.20
2022-10-28T20:40:23.009Z,75.20
2022-10-28T20:45:35.384Z,75.30
2022-10-28T20:48:02.652Z,75.20
2022-10-28T20:50:29.998Z,75.40
2022-10-28T20:52:57.907Z,75.30
2022-10-28T20:55:25.898Z,75.20
2022-10-28T21:00:38.433Z,75.30
2022-10-28T21:05:50.888Z,75.90
2022-10-28T21:08:19.920Z,76.30
2022-10-28T21:10:47.662Z,76.10
2022-10-28T21:13:15.305Z,75.80
2022-10-28T21:15:54.712Z,75.70
2022-10-28T21:18:28.989Z,75.70
2022-10-28T21:20:59.235Z,75.80
2022-10-28T21:23:28.966Z,75.70
2022-10-28T21:26:02.347Z,75.60
2022-10-28T21:28:32.189Z,75.60
2022-10-28T21:36:20.904Z,75.80
2022-10-28T21:41:37.248Z,76.00
2022-10-28T21:44:05.541Z,75.90
2022-10-28T21:46:33.146Z,75.90
2022-10-28T21:49:01.174Z,75.80
2022-10-28T21:51:28.767Z,75.90
2022-10-28T21:53:56.378Z,75.90
2022-10-28T21:56:23.867Z,76.10
2022-10-28T21:58:53.899Z,77.00
2022-10-28T22:01:24.521Z,76.50
2022-10-28T22:06:40.220Z,76.30
2022-10-28T22:09:07.811Z,76.40
2022-10-28T22:11:35.619Z,76.30
2022-10-28T22:14:05.200Z,76.30
2022-10-28T22:16:35.277Z,76.30
2022-10-28T22:19:06.589Z,76.20
2022-10-28T22:24:24.744Z,76.30
2022-10-28T22:26:52.552Z,76.20
2022-10-28T22:29:20.288Z,76.20
2022-10-28T22:34:32.983Z,76.30
2022-10-28T22:37:00.535Z,76.30
2022-10-28T22:39:29.366Z,76.40
2022-10-28T22:41:56.886Z,76.30
2022-10-28T22:47:09.961Z,76.30
2022-10-28T22:49:37.621Z,76.50
2022-10-28T22:52:05.585Z,76.30
2022-10-28T22:54:33.221Z,76.40
2022-10-28T22:57:00.665Z,76.40
2022-10-28T23:02:13.351Z,76.60
2022-10-28T23:04:40.909Z,76.50
2022-10-28T23:07:08.395Z,76.40
2022-10-28T23:09:35.892Z,76.50
2022-10-28T23:20:24.260Z,76.60
2022-10-28T23:22:55.609Z,76.60
2022-10-28T23:25:23.390Z,76.60
2022-10-28T23:27:51.022Z,76.70
2022-10-28T23:30:18.581Z,76.70
2022-10-28T23:32:46.004Z,76.80
2022-10-28T23:35:13.784Z,76.60
2022-10-28T23:40:26.547Z,76.70
2022-10-28T23:42:54.286Z,76.70
2022-10-28T23:45:22.027Z,77.10
2022-10-28T23:47:49.418Z,77.00
2022-10-28T23:53:01.636Z,77.10
2022-10-28T23:55:29.237Z,77.00
2022-10-28T23:57:57.923Z,77.00
